Terminal Aerodrome Forecast
Issued by NWS

Home | Current Version | Previous Version | Text Only | Print | Product List | Glossary On
Versions: 1 2 3 4 5 6 7 8 9 10 11 12 13 14 15 16 17 18
000
FTUS41 KCAR 251433 AAB
TAFFVE
TAF AMD
KFVE 251433Z 2515/2612 18007KT P6SM SCT015
     FM251600 18007KT P6SM BKN045
     FM252200 32006KT P6SM VCTS BKN030CB
     FM260000 32006KT P6SM BKN020
     FM260200 31006KT P6SM BKN008
     FM261000 33011KT P6SM BKN015=

USA.gov is the U.S. government's official web portal to all federal, state and local government web resources and services.